createdAt,value
2018-09-22T03:38:36.821Z,99.99
2018-09-22T03:39:36.803Z,99.99
2018-09-22T03:41:28.708Z,99.99
2018-09-22T03:42:28.714Z,99.99
2018-09-22T03:44:20.639Z,99.99
2018-09-22T03:45:20.627Z,99.99
2018-09-22T03:47:12.540Z,99.99
2018-09-22T03:48:12.538Z,99.99
2018-09-22T03:50:04.465Z,99.99
2018-09-22T03:51:04.463Z,99.99
2018-09-22T03:52:56.392Z,99.99
2018-09-22T03:53:56.379Z,99.99
2018-09-22T03:55:48.797Z,99.99
2018-09-22T03:56:48.816Z,99.99
2018-09-22T03:58:40.737Z,99.99
2018-09-22T03:59:40.733Z,99.99
2018-09-22T04:01:32.643Z,99.99
2018-09-22T04:02:32.651Z,99.99
2018-09-22T04:04:24.586Z,99.99
2018-09-22T04:05:24.578Z,99.99
2018-09-22T04:07:16.474Z,99.99
2018-09-22T04:08:16.497Z,99.99
2018-09-22T04:10:08.426Z,99.99
2018-09-22T04:11:08.413Z,99.99
2018-09-22T04:13:00.346Z,99.99
2018-09-22T04:14:00.332Z,99.99
2018-09-22T04:15:52.245Z,99.99
2018-09-22T04:16:52.256Z,99.99
2018-09-22T04:18:44.237Z,99.99
2018-09-22T04:19:44.178Z,99.99
2018-09-22T04:21:36.101Z,99.99
2018-09-22T04:22:36.109Z,99.99
2018-09-22T04:24:28.055Z,99.99
2018-09-22T04:25:28.054Z,99.99
2018-09-22T04:27:19.981Z,99.99
2018-09-22T04:28:19.980Z,99.99
2018-09-22T04:30:11.913Z,99.99
2018-09-22T04:31:11.907Z,99.99
2018-09-22T04:33:03.825Z,99.99
2018-09-22T04:34:03.842Z,99.99
2018-09-22T04:35:55.796Z,99.99
2018-09-22T04:36:55.787Z,99.99
2018-09-22T04:38:47.723Z,99.99
2018-09-22T04:39:47.714Z,99.99
2018-09-22T04:41:39.630Z,99.99
2018-09-22T04:42:39.645Z,99.99
2018-09-22T04:44:31.569Z,99.99
2018-09-22T04:45:31.561Z,99.99
2018-09-22T04:47:23.483Z,99.99
2018-09-22T04:48:23.489Z,99.99
2018-09-22T04:50:15.429Z,99.99
2018-09-22T04:51:15.425Z,99.99
2018-09-22T04:53:07.387Z,99.99
2018-09-22T04:54:07.367Z,99.99
2018-09-22T04:55:59.290Z,99.99
2018-09-22T04:56:59.284Z,99.99
2018-09-22T04:58:51.226Z,99.99
2018-09-22T04:59:51.218Z,99.99
2018-09-22T05:01:43.149Z,99.99
2018-09-22T05:02:43.159Z,99.99
2018-09-22T05:04:35.094Z,99.99
2018-09-22T05:05:35.083Z,99.99
2018-09-22T05:07:27.015Z,99.99
2018-09-22T05:08:27.023Z,99.99
2018-09-22T05:10:18.974Z,99.99
2018-09-22T05:11:18.959Z,99.99
2018-09-22T05:13:10.882Z,99.99
2018-09-22T05:14:10.889Z,99.99
2018-09-22T05:16:02.827Z,99.99
2018-09-22T05:17:02.892Z,99.99
2018-09-22T05:18:54.761Z,99.99
2018-09-22T05:19:54.741Z,99.99
2018-09-22T05:21:46.656Z,99.99
2018-09-22T05:22:46.670Z,99.99
2018-09-22T05:24:38.673Z,99.99
2018-09-22T05:25:38.608Z,99.99
2018-09-22T05:27:30.518Z,99.99
2018-09-22T05:28:30.529Z,99.99
2018-09-22T05:30:22.471Z,99.99
2018-09-22T05:31:22.458Z,99.99
2018-09-22T05:33:14.367Z,99.99
2018-09-22T05:34:14.378Z,99.99
2018-09-22T05:36:06.324Z,99.99
2018-09-22T05:37:06.308Z,99.99
2018-09-22T05:38:58.258Z,99.99
2018-09-22T05:39:58.237Z,99.99
2018-09-22T05:41:50.205Z,99.99
2018-09-22T05:42:50.169Z,99.99
2018-09-22T05:44:42.100Z,99.99
2018-09-22T05:45:42.084Z,99.99
2018-09-22T05:47:33.998Z,99.99
2018-09-22T05:48:34.009Z,99.99
2018-09-22T05:50:25.961Z,99.99
2018-09-22T05:51:25.940Z,99.99
2018-09-22T05:53:17.871Z,99.99
2018-09-22T05:54:17.888Z,99.99
2018-09-22T05:56:09.815Z,99.99
2018-09-22T05:57:09.800Z,99.99
2018-09-22T05:58:09.883Z,99.99
2018-09-22T05:59:09.835Z,99.99
2018-09-22T06:00:09.855Z,99.99
2018-09-22T06:01:09.870Z,99.99
2018-09-22T06:02:09.889Z,99.99
2018-09-22T06:03:09.905Z,99.99
2018-09-22T06:04:09.921Z,99.99
2018-09-22T06:05:09.937Z,99.99
2018-09-22T06:06:09.953Z,99.99
2018-09-22T06:07:09.970Z,99.99
2018-09-22T06:08:09.988Z,99.99
2018-09-22T06:09:10.014Z,99.99
2018-09-22T06:10:10.021Z,99.99
2018-09-22T06:11:10.037Z,99.99
2018-09-22T06:12:10.054Z,99.99
2018-09-22T06:13:10.071Z,99.99
2018-09-22T06:14:10.091Z,99.99
2018-09-22T06:15:10.102Z,99.99
2018-09-22T06:16:10.122Z,99.99
2018-09-22T06:17:10.139Z,99.99
2018-09-22T06:18:10.155Z,99.99
2018-09-22T06:19:10.176Z,99.99
2018-09-22T06:20:10.189Z,99.99
2018-09-22T06:21:10.208Z,99.99
2018-09-22T06:22:10.231Z,99.99
2018-09-22T06:23:10.301Z,99.99
2018-09-22T06:24:10.258Z,99.99
2018-09-22T06:25:10.273Z,99.99
2018-09-22T06:26:10.293Z,99.99
2018-09-22T06:27:10.309Z,99.99
2018-09-22T06:28:10.323Z,99.99
2018-09-22T06:29:10.339Z,99.99
2018-09-22T06:30:10.359Z,99.99
2018-09-22T06:31:10.377Z,99.99
2018-09-22T06:32:10.400Z,99.99
2018-09-22T06:33:10.409Z,99.99
2018-09-22T06:34:10.426Z,99.99
2018-09-22T06:35:10.446Z,99.99
2018-09-22T06:36:10.463Z,99.99
2018-09-22T06:37:10.478Z,99.99
2018-09-22T06:38:10.495Z,99.99
2018-09-22T06:39:10.512Z,99.99
2018-09-22T06:40:10.530Z,99.99
2018-09-22T06:41:10.546Z,99.99
2018-09-22T06:42:10.565Z,99.99
2018-09-22T06:43:10.579Z,99.99
2018-09-22T06:44:10.598Z,99.99
2018-09-22T06:45:10.615Z,99.99
2018-09-22T06:46:10.690Z,99.99
2018-09-22T06:47:10.651Z,99.99
2018-09-22T06:48:10.668Z,99.99
2018-09-22T06:49:10.685Z,99.99
2018-09-22T06:50:10.705Z,99.99
2018-09-22T06:51:10.724Z,99.99
2018-09-22T06:52:10.736Z,99.99
2018-09-22T06:53:10.750Z,99.99
2018-09-22T06:54:10.778Z,99.99
2018-09-22T06:55:10.792Z,99.99
2018-09-22T06:56:10.809Z,99.99
2018-09-22T06:57:10.823Z,99.99
2018-09-22T06:58:10.841Z,99.99
2018-09-22T06:59:10.862Z,99.99
2018-09-22T07:00:10.960Z,99.99
2018-09-22T07:01:10.895Z,99.99
2018-09-22T07:02:10.909Z,99.99
2018-09-22T07:03:10.934Z,99.99
2018-09-22T07:04:10.949Z,99.99
2018-09-22T07:05:10.967Z,99.99
2018-09-22T07:06:10.994Z,99.99
2018-09-22T07:07:11.005Z,99.99
2018-09-22T07:08:11.018Z,99.99
2018-09-22T07:09:11.039Z,99.99
2018-09-22T07:10:11.061Z,99.99
2018-09-22T07:11:11.072Z,99.99
2018-09-22T07:12:11.090Z,99.99
2018-09-22T07:13:11.108Z,99.99
2018-09-22T07:14:11.125Z,99.99
2018-09-22T07:15:11.141Z,99.99
2018-09-22T07:16:11.163Z,99.99
2018-09-22T07:17:11.177Z,99.99
2018-09-22T07:18:11.197Z,99.99
2018-09-22T07:19:11.217Z,99.99
2018-09-22T07:20:11.232Z,99.99
2018-09-22T07:21:11.251Z,99.99
2018-09-22T07:22:11.267Z,99.99
2018-09-22T07:23:11.287Z,99.99
2018-09-22T07:24:11.307Z,99.99
2018-09-22T07:25:11.329Z,99.99
2018-09-22T07:26:11.345Z,99.99
2018-09-22T07:27:11.364Z,99.99
2018-09-22T07:28:11.377Z,99.99
2018-09-22T07:29:11.395Z,99.99
2018-09-22T07:30:11.411Z,99.99
2018-09-22T07:31:11.429Z,99.99
2018-09-22T07:32:11.448Z,99.99
2018-09-22T07:33:11.469Z,99.99
2018-09-22T07:34:11.500Z,99.99
2018-09-22T07:35:11.503Z,99.99
2018-09-22T07:36:11.526Z,99.99
2018-09-22T07:37:11.536Z,99.99
2018-09-22T07:38:11.556Z,99.99
2018-09-22T07:39:11.573Z,99.99
2018-09-22T07:40:11.595Z,99.99
2018-09-22T07:41:11.612Z,99.99
2018-09-22T07:42:11.634Z,99.99
2018-09-22T07:43:11.648Z,99.99
2018-09-22T07:44:11.664Z,99.99
2018-09-22T07:45:11.685Z,99.99
2018-09-22T07:46:11.700Z,99.99
2018-09-22T07:47:11.716Z,99.99
2018-09-22T07:48:11.742Z,99.99
2018-09-22T07:49:11.755Z,99.99
2018-09-22T07:50:11.775Z,99.99
2018-09-22T07:51:11.791Z,99.99
2018-09-22T07:52:11.810Z,99.99
2018-09-22T07:53:11.833Z,99.99
2018-09-22T07:54:11.849Z,99.99
2018-09-22T07:55:11.866Z,99.99
2018-09-22T07:56:11.888Z,99.99
2018-09-22T07:57:11.908Z,99.99
2018-09-22T07:58:11.924Z,99.99
2018-09-22T07:59:11.942Z,99.99
2018-09-22T08:00:11.986Z,99.99
2018-09-22T08:01:11.975Z,99.99
2018-09-22T08:02:11.997Z,99.99
2018-09-22T08:03:12.023Z,99.99
2018-09-22T08:04:12.034Z,99.99
2018-09-22T08:05:12.053Z,99.99
2018-09-22T08:06:12.072Z,99.99
2018-09-22T08:07:12.102Z,99.99
2018-09-22T08:08:12.112Z,99.99
2018-09-22T08:09:12.132Z,99.99
2018-09-22T08:10:12.144Z,99.99
2018-09-22T08:11:12.164Z,99.99
2018-09-22T08:12:12.192Z,99.99
2018-09-22T08:13:12.205Z,99.99
2018-09-22T08:14:12.218Z,99.99
2018-09-22T08:15:12.239Z,99.99
2018-09-22T08:16:12.262Z,99.99
2018-09-22T08:17:12.274Z,99.99
2018-09-22T08:18:12.289Z,99.99
2018-09-22T08:19:12.325Z,99.99
2018-09-22T08:20:12.331Z,99.99
2018-09-22T08:21:12.352Z,99.99
2018-09-22T08:22:12.365Z,99.99
2018-09-22T08:23:12.388Z,99.99
2018-09-22T08:24:12.406Z,99.99
2018-09-22T08:25:12.454Z,99.99
2018-09-22T08:26:12.441Z,99.99
2018-09-22T08:27:12.464Z,99.99
2018-09-22T08:28:12.481Z,99.99
2018-09-22T08:29:12.501Z,99.99
2018-09-22T08:30:12.514Z,99.99
2018-09-22T08:31:12.535Z,99.99
2018-09-22T08:32:12.556Z,99.99
2018-09-22T08:33:12.571Z,99.99
2018-09-22T08:34:12.591Z,99.99
2018-09-22T08:35:12.610Z,99.99
2018-09-22T08:36:12.799Z,99.99
2018-09-22T08:37:12.715Z,99.99
2018-09-22T08:38:12.665Z,99.99
2018-09-22T08:39:12.685Z,99.99
2018-09-22T08:40:12.707Z,99.99
2018-09-22T08:41:12.726Z,99.99
2018-09-22T08:42:12.742Z,99.99
2018-09-22T08:43:12.761Z,99.99
2018-09-22T08:44:12.782Z,99.99
2018-09-22T08:45:12.803Z,99.99
2018-09-22T08:46:12.818Z,99.99
2018-09-22T08:47:12.840Z,99.99
2018-09-22T08:48:12.854Z,99.99
2018-09-22T08:49:12.873Z,99.99
2018-09-22T08:50:12.899Z,99.99
2018-09-22T08:51:12.973Z,99.99
2018-09-22T08:52:12.934Z,99.99
2018-09-22T08:53:12.960Z,99.99
2018-09-22T08:54:12.976Z,99.99
2018-09-22T08:55:12.993Z,99.99
2018-09-22T08:56:13.014Z,99.99
2018-09-22T08:57:13.034Z,99.99
2018-09-22T08:58:13.049Z,99.99
2018-09-22T08:59:13.071Z,99.99
2018-09-22T09:00:13.090Z,99.99
2018-09-22T09:01:13.105Z,99.99
2018-09-22T09:02:13.130Z,99.99
2018-09-22T09:03:13.144Z,99.99
2018-09-22T09:04:13.166Z,99.99
2018-09-22T09:05:13.187Z,99.99
2018-09-22T09:06:13.205Z,99.99
2018-09-22T09:07:13.224Z,99.99
2018-09-22T09:08:13.246Z,99.99
2018-09-22T09:09:13.265Z,99.99
2018-09-22T09:10:13.280Z,99.99
2018-09-22T09:11:13.369Z,99.99
2018-09-22T09:12:13.322Z,99.99
2018-09-22T09:13:13.360Z,99.99
2018-09-22T09:14:13.410Z,99.99
2018-09-22T09:15:13.384Z,99.99
2018-09-22T09:16:13.402Z,99.99
2018-09-22T09:17:13.521Z,99.99
2018-09-22T09:18:13.443Z,99.99
2018-09-22T09:19:13.461Z,99.99
2018-09-22T09:20:13.479Z,99.44
2018-09-22T09:21:13.503Z,99.99
2018-09-22T09:22:13.528Z,99.99
2018-09-22T09:23:13.543Z,98.29
2018-09-22T09:24:13.561Z,98.00
2018-09-22T09:25:13.588Z,97.33
2018-09-22T09:26:13.602Z,96.08
2018-09-22T09:27:13.623Z,95.79
2018-09-22T09:28:13.642Z,96.75
2018-09-22T09:29:13.661Z,95.41
2018-09-22T09:30:13.678Z,95.50
2018-09-22T09:31:13.708Z,95.79
2018-09-22T09:32:13.723Z,96.27
2018-09-22T09:33:13.755Z,94.07
2018-09-22T09:34:13.786Z,95.07
2018-09-22T09:35:13.777Z,94.31
2018-09-22T09:36:13.800Z,94.31
2018-09-22T09:37:13.823Z,93.87
2018-09-22T09:38:13.839Z,94.74
2018-09-22T09:39:13.860Z,94.11
2018-09-22T09:40:13.883Z,93.73
2018-09-22T09:41:13.910Z,93.92
2018-09-22T09:42:13.919Z,92.67
2018-09-22T09:43:13.957Z,92.96
2018-09-22T09:44:13.957Z,92.77
2018-09-22T09:45:13.979Z,92.19
2018-09-22T09:46:13.999Z,91.42
2018-09-22T09:47:14.030Z,90.46
2018-09-22T09:48:14.040Z,91.04
2018-09-22T09:49:14.065Z,91.52
2018-09-22T09:50:14.080Z,89.79
2018-09-22T09:51:14.097Z,90.94
2018-09-22T09:52:14.120Z,90.99
2018-09-22T09:53:14.137Z,89.93
2018-09-22T09:54:14.159Z,89.93
2018-09-22T09:55:14.182Z,89.64
2018-09-22T09:56:14.201Z,89.54
2018-09-22T09:57:14.223Z,89.54
2018-09-22T09:58:14.236Z,88.87
2018-09-22T09:59:14.262Z,90.12
2018-09-22T10:00:14.292Z,88.97
2018-09-22T10:01:14.302Z,90.80
2018-09-22T10:02:14.321Z,92.48
2018-09-22T10:03:14.342Z,89.79
2018-09-22T10:04:14.376Z,91.37
2018-09-22T10:05:14.382Z,91.75
2018-09-22T10:06:14.406Z,89.36
2018-09-22T10:07:14.422Z,88.68
2018-09-22T10:08:14.450Z,89.54
2018-09-22T10:09:14.465Z,90.60
2018-09-22T10:10:14.488Z,91.37
2018-09-22T10:11:14.504Z,91.37
2018-09-22T10:12:14.536Z,91.08
2018-09-22T10:13:14.559Z,90.12
2018-09-22T10:14:14.567Z,89.54
2018-09-22T10:15:14.585Z,90.31
2018-09-22T10:16:14.607Z,90.70
2018-09-22T10:17:14.626Z,90.99
2018-09-22T10:18:14.661Z,91.18
2018-09-22T10:19:14.690Z,92.00
2018-09-22T10:20:14.700Z,90.94
2018-09-22T10:21:14.707Z,90.46
2018-09-22T10:22:14.729Z,91.33
2018-09-22T10:23:14.747Z,91.33
2018-09-22T10:24:14.769Z,90.27
2018-09-22T10:25:14.792Z,91.23
2018-09-22T10:26:14.811Z,91.42
2018-09-22T10:27:14.830Z,90.66
2018-09-22T10:28:14.886Z,90.56
2018-09-22T10:29:14.869Z,91.08
2018-09-22T10:30:14.894Z,89.74
2018-09-22T10:31:14.917Z,90.03
2018-09-22T10:32:14.933Z,88.20
2018-09-22T10:33:14.952Z,88.68
2018-09-22T10:34:14.971Z,87.05
2018-09-22T10:35:14.993Z,88.97
2018-09-22T10:36:15.011Z,88.97
2018-09-22T10:37:15.032Z,87.24
2018-09-22T10:38:15.053Z,87.92
2018-09-22T10:39:15.078Z,88.39
2018-09-22T10:40:15.100Z,90.03
2018-09-22T10:41:15.114Z,88.49
2018-09-22T10:42:15.170Z,89.93
2018-09-22T10:43:15.159Z,88.15
2018-09-22T10:44:15.178Z,88.44
2018-09-22T10:45:15.191Z,90.03
2018-09-22T10:46:15.219Z,89.74
2018-09-22T10:47:15.237Z,90.55
2018-09-22T10:48:15.257Z,90.45
2018-09-22T10:49:15.283Z,88.63
2018-09-22T10:50:15.298Z,87.24
2018-09-22T10:51:15.322Z,89.93
2018-09-22T10:52:15.337Z,90.60
2018-09-22T10:53:15.367Z,90.99
2018-09-22T10:54:15.385Z,89.54
2018-09-22T10:55:15.398Z,89.93
2018-09-22T10:56:15.422Z,90.51
2018-09-22T10:57:15.440Z,90.12
2018-09-22T10:58:15.462Z,89.45
2018-09-22T10:59:15.483Z,90.60
2018-09-22T11:00:15.504Z,91.95
2018-09-22T11:01:15.526Z,91.47
2018-09-22T11:02:15.549Z,90.51
2018-09-22T11:03:15.571Z,91.18
2018-09-22T11:04:15.586Z,90.41
2018-09-22T11:05:15.613Z,90.22
2018-09-22T11:06:15.629Z,90.80
2018-09-22T11:07:15.646Z,91.28
2018-09-22T11:08:15.694Z,90.56
2018-09-22T11:09:15.684Z,89.50
2018-09-22T11:10:15.708Z,89.50
2018-09-22T11:11:15.723Z,90.37
2018-09-22T11:12:15.754Z,90.56
2018-09-22T11:13:15.772Z,90.60
2018-09-22T11:14:15.807Z,90.70
2018-09-22T11:15:15.806Z,89.93
2018-09-22T11:16:15.832Z,90.22
2018-09-22T11:17:15.852Z,88.78
2018-09-22T11:18:15.870Z,87.96
2018-09-22T11:19:15.896Z,88.82
2018-09-22T11:20:15.911Z,87.29
2018-09-22T11:21:15.931Z,89.01
2018-09-22T11:22:15.954Z,88.92
2018-09-22T11:23:15.983Z,87.86
2018-09-22T11:24:15.993Z,88.82
2018-09-22T11:25:16.016Z,86.80
2018-09-22T11:26:16.032Z,86.52
2018-09-22T11:27:16.056Z,87.29
2018-09-22T11:28:16.079Z,89.07
2018-09-22T11:29:16.098Z,89.36
2018-09-22T11:30:16.116Z,91.18
2018-09-22T11:31:16.143Z,97.96
2018-09-22T11:32:16.156Z,99.99
2018-09-22T11:33:16.175Z,99.99
2018-09-22T11:34:16.198Z,99.99
2018-09-22T11:35:16.219Z,99.99
2018-09-22T11:36:16.238Z,99.99
2018-09-22T11:37:16.261Z,99.99
2018-09-22T11:38:16.306Z,99.99
2018-09-22T11:39:16.297Z,99.99
2018-09-22T11:40:16.326Z,99.99
2018-09-22T11:41:16.340Z,99.99
2018-09-22T11:42:16.361Z,99.99
2018-09-22T11:43:16.382Z,99.99
2018-09-22T11:44:16.401Z,99.99
2018-09-22T11:45:16.437Z,99.99
2018-09-22T11:46:16.451Z,99.99
2018-09-22T11:47:16.464Z,99.99
2018-09-22T11:48:16.482Z,99.99
2018-09-22T11:49:16.501Z,99.99
2018-09-22T11:50:16.523Z,99.99
2018-09-22T11:51:16.544Z,99.99
2018-09-22T11:52:16.565Z,99.99
2018-09-22T11:53:16.578Z,99.99
2018-09-22T11:54:16.602Z,99.99
2018-09-22T11:55:16.624Z,99.99
2018-09-22T11:56:16.702Z,99.99
2018-09-22T11:57:16.660Z,99.99
2018-09-22T11:58:16.685Z,99.99
2018-09-22T11:59:16.704Z,99.99
2018-09-22T12:00:16.725Z,99.99
2018-09-22T12:01:16.745Z,99.99
2018-09-22T12:02:16.768Z,99.99
2018-09-22T12:03:16.789Z,99.99
2018-09-22T12:04:16.806Z,99.99
2018-09-22T12:05:16.826Z,99.99
2018-09-22T12:06:16.884Z,99.99
2018-09-22T12:07:16.867Z,99.99
2018-09-22T12:08:16.891Z,99.99
2018-09-22T12:09:16.908Z,99.99
2018-09-22T12:10:16.927Z,99.99
2018-09-22T12:11:16.953Z,99.99
2018-09-22T12:12:16.968Z,99.99
2018-09-22T12:13:16.990Z,99.99
2018-09-22T12:14:17.020Z,99.99
2018-09-22T12:15:17.029Z,99.99
2018-09-22T12:16:17.048Z,99.99
2018-09-22T12:17:17.071Z,99.99
2018-09-22T12:18:17.091Z,99.99
2018-09-22T12:19:17.114Z,99.40
2018-09-22T12:20:17.135Z,99.99
2018-09-22T12:21:17.167Z,99.59
2018-09-22T12:22:17.175Z,99.68
2018-09-22T12:23:17.205Z,99.40
2018-09-22T12:24:17.211Z,99.88
2018-09-22T12:25:17.235Z,99.99
2018-09-22T12:26:17.254Z,99.78
2018-09-22T12:27:17.277Z,99.21
2018-09-22T12:28:17.295Z,99.68
2018-09-22T12:29:17.312Z,97.28
2018-09-22T12:30:17.338Z,94.98
2018-09-22T12:31:17.358Z,96.32
2018-09-22T12:32:17.382Z,95.07
2018-09-22T12:33:17.402Z,93.10
2018-09-22T12:34:17.421Z,93.24
2018-09-22T12:35:17.437Z,92.52
2018-09-22T12:36:17.463Z,93.49
2018-09-22T12:37:17.483Z,94.54
2018-09-22T12:38:17.504Z,94.83
2018-09-22T12:39:17.522Z,95.12
2018-09-22T12:40:17.545Z,94.06
2018-09-22T12:41:17.563Z,94.35
2018-09-22T12:42:17.589Z,95.03
2018-09-22T12:43:17.607Z,95.75
2018-09-22T12:44:17.630Z,95.26
2018-09-22T12:45:17.644Z,95.94
2018-09-22T12:46:17.666Z,95.75
2018-09-22T12:47:17.684Z,95.89
2018-09-22T12:48:17.709Z,96.66
2018-09-22T12:49:17.724Z,96.89
2018-09-22T12:50:17.748Z,96.66
2018-09-22T12:51:17.768Z,97.81
2018-09-22T12:52:17.791Z,98.29
2018-09-22T12:53:17.808Z,99.25
2018-09-22T12:54:17.832Z,98.58
2018-09-22T12:55:17.850Z,98.67
2018-09-22T12:56:17.873Z,99.82
2018-09-22T12:57:17.890Z,99.82
2018-09-22T12:58:17.912Z,99.15
2018-09-22T12:59:17.938Z,99.34
2018-09-22T13:00:17.949Z,99.63
2018-09-22T13:01:17.970Z,99.99
2018-09-22T13:02:17.992Z,99.99
2018-09-22T13:03:18.011Z,99.99
2018-09-22T13:04:18.034Z,99.99
2018-09-22T13:05:18.051Z,99.99
2018-09-22T13:06:18.068Z,99.99
2018-09-22T13:07:18.095Z,99.99
2018-09-22T13:08:18.114Z,99.99
2018-09-22T13:09:18.129Z,99.99
2018-09-22T13:10:18.174Z,99.99
2018-09-22T13:11:18.171Z,99.99
2018-09-22T13:12:18.198Z,99.99
2018-09-22T13:13:18.210Z,99.99
2018-09-22T13:14:18.230Z,99.99
2018-09-22T13:15:18.255Z,99.99
2018-09-22T13:16:18.271Z,99.99
2018-09-22T13:17:18.292Z,99.99
2018-09-22T13:18:18.310Z,99.99
2018-09-22T13:19:18.329Z,99.99
2018-09-22T13:20:18.378Z,99.99
2018-09-22T13:21:18.369Z,99.99
2018-09-22T13:22:18.385Z,99.99
2018-09-22T13:23:18.404Z,99.99
2018-09-22T13:24:18.426Z,99.99
2018-09-22T13:25:18.446Z,99.99
2018-09-22T13:26:18.469Z,99.99
2018-09-22T13:27:18.485Z,99.99
2018-09-22T13:28:18.506Z,99.99
2018-09-22T13:29:18.521Z,99.99
2018-09-22T13:30:18.544Z,99.99
2018-09-22T13:31:18.561Z,99.99
2018-09-22T13:32:18.578Z,99.99
2018-09-22T13:33:18.600Z,99.99
2018-09-22T13:34:18.614Z,99.99
2018-09-22T13:35:18.640Z,99.99
2018-09-22T13:36:18.662Z,99.99
2018-09-22T13:37:18.703Z,99.99
2018-09-22T13:38:18.702Z,99.99
2018-09-22T13:39:18.718Z,99.99
2018-09-22T13:40:18.736Z,99.99
2018-09-22T13:41:18.753Z,99.99
2018-09-22T13:42:18.773Z,99.99
2018-09-22T13:43:18.796Z,99.99
2018-09-22T13:44:18.811Z,99.99
2018-09-22T13:45:18.833Z,99.99
2018-09-22T13:46:18.848Z,99.99
2018-09-22T13:47:18.869Z,99.99
2018-09-22T13:48:18.898Z,99.99
2018-09-22T13:49:18.910Z,99.99
2018-09-22T13:50:18.926Z,99.99
2018-09-22T13:51:18.946Z,99.99
2018-09-22T13:52:18.968Z,99.99
2018-09-22T13:53:18.984Z,99.99
2018-09-22T13:54:19.005Z,99.99
2018-09-22T13:55:19.022Z,99.99
2018-09-22T13:56:19.097Z,99.99
2018-09-22T13:57:19.060Z,99.99
2018-09-22T13:58:19.077Z,99.99
2018-09-22T13:59:19.103Z,99.99
2018-09-22T14:00:19.115Z,99.99
2018-09-22T14:01:19.143Z,99.99
2018-09-22T14:02:19.151Z,99.99
2018-09-22T14:03:19.173Z,99.99
2018-09-22T14:04:19.196Z,99.99
2018-09-22T14:05:19.213Z,99.99
2018-09-22T14:06:19.237Z,99.99
2018-09-22T14:07:19.255Z,99.99
2018-09-22T14:08:19.271Z,99.99
2018-09-22T14:09:19.283Z,99.99
2018-09-22T14:10:19.373Z,99.99
2018-09-22T14:11:19.326Z,99.99
2018-09-22T14:12:19.346Z,99.99
2018-09-22T14:13:19.362Z,99.99
2018-09-22T14:14:19.380Z,99.99
2018-09-22T14:15:19.397Z,99.99
2018-09-22T14:16:19.417Z,99.99
2018-09-22T14:17:19.443Z,99.99
2018-09-22T14:18:19.454Z,99.99
2018-09-22T14:19:19.474Z,99.99
2018-09-22T14:20:19.492Z,99.99
2018-09-22T14:21:19.568Z,99.99
2018-09-22T14:22:19.535Z,99.99
2018-09-22T14:23:19.548Z,99.99
2018-09-22T14:24:19.630Z,99.99
2018-09-22T14:25:19.588Z,99.99
2018-09-22T14:26:19.607Z,99.99
2018-09-22T14:27:19.624Z,99.99
2018-09-22T14:28:19.652Z,99.99
2018-09-22T14:29:19.664Z,99.99
2018-09-22T14:30:19.683Z,99.99
2018-09-22T14:31:19.700Z,99.99
2018-09-22T14:32:19.719Z,99.99
2018-09-22T14:33:19.737Z,99.99
2018-09-22T14:34:19.755Z,99.99
2018-09-22T14:35:19.782Z,99.99
2018-09-22T14:36:19.802Z,99.99
2018-09-22T14:37:19.814Z,99.99
2018-09-22T14:38:19.833Z,99.99
2018-09-22T14:39:19.854Z,99.99
2018-09-22T14:40:19.893Z,99.99
2018-09-22T14:41:19.895Z,99.99
2018-09-22T14:42:19.911Z,99.99
2018-09-22T14:43:19.930Z,99.99
2018-09-22T14:44:19.948Z,99.99
2018-09-22T14:45:19.963Z,99.99
2018-09-22T14:46:19.990Z,99.99
2018-09-22T14:47:20.003Z,99.99
2018-09-22T14:48:20.047Z,99.99
2018-09-22T14:49:20.039Z,99.99
2018-09-22T14:50:20.063Z,99.99
2018-09-22T14:51:20.100Z,99.99
2018-09-22T14:52:20.112Z,99.99
2018-09-22T14:53:20.175Z,99.99
2018-09-22T14:54:20.152Z,99.99
2018-09-22T14:55:20.156Z,99.99
2018-09-22T14:56:20.179Z,99.99
2018-09-22T14:57:20.196Z,99.99
2018-09-22T14:58:20.215Z,99.99
2018-09-22T14:59:20.240Z,99.99
2018-09-22T15:00:20.256Z,99.99
2018-09-22T15:01:20.270Z,99.99
2018-09-22T15:02:20.290Z,99.99
2018-09-22T15:03:20.310Z,99.99
2018-09-22T15:04:20.325Z,99.99
2018-09-22T15:05:20.349Z,99.99
2018-09-22T15:06:20.371Z,99.99
2018-09-22T15:07:20.386Z,99.99
2018-09-22T15:08:20.403Z,99.99
2018-09-22T15:09:20.425Z,99.99
2018-09-22T15:10:20.443Z,99.99
2018-09-22T15:11:20.462Z,99.99
2018-09-22T15:12:20.480Z,99.99
2018-09-22T15:13:20.501Z,99.99
2018-09-22T15:14:20.514Z,99.99
2018-09-22T15:15:20.535Z,99.99
2018-09-22T15:16:20.554Z,99.99
2018-09-22T15:17:20.635Z,99.99
2018-09-22T15:18:20.593Z,99.99
2018-09-22T15:19:20.613Z,99.99
2018-09-22T15:20:20.628Z,99.99
2018-09-22T15:21:20.644Z,99.99
2018-09-22T15:22:20.668Z,99.99
2018-09-22T15:23:20.696Z,99.99
2018-09-22T15:24:20.703Z,99.99
2018-09-22T15:25:20.720Z,99.99
2018-09-22T15:26:20.740Z,99.99
2018-09-22T15:27:20.764Z,99.99
2018-09-22T15:28:20.781Z,98.86
2018-09-22T15:29:20.803Z,97.90
2018-09-22T15:30:20.844Z,96.75
2018-09-22T15:31:20.833Z,99.72
2018-09-22T15:32:20.862Z,97.52
2018-09-22T15:33:20.870Z,96.75
2018-09-22T15:34:20.888Z,95.98
2018-09-22T15:35:20.909Z,95.03
2018-09-22T15:36:20.930Z,94.93
2018-09-22T15:37:20.965Z,94.74
2018-09-22T15:38:20.971Z,93.40
2018-09-22T15:39:20.982Z,96.66
2018-09-22T15:40:21.003Z,97.61
2018-09-22T15:41:21.021Z,97.90
2018-09-22T15:42:21.040Z,99.05
2018-09-22T15:43:21.057Z,97.61
2018-09-22T15:44:21.075Z,99.99
2018-09-22T15:45:21.131Z,99.99
2018-09-22T15:46:21.109Z,99.99
2018-09-22T15:47:21.130Z,99.99
2018-09-22T15:48:21.255Z,99.99
2018-09-22T15:49:21.164Z,99.99
2018-09-22T15:50:21.182Z,99.99
2018-09-22T15:51:21.199Z,99.99
2018-09-22T15:52:21.238Z,99.99
2018-09-22T15:53:21.241Z,99.99
2018-09-22T15:54:21.254Z,99.99
2018-09-22T15:55:21.275Z,99.99
2018-09-22T15:56:21.293Z,99.81
2018-09-22T15:57:21.306Z,96.27
2018-09-22T15:58:21.331Z,95.89
2018-09-22T15:59:21.375Z,99.99
2018-09-22T16:00:21.361Z,99.99
2018-09-22T16:01:21.379Z,94.46
2018-09-22T16:02:21.405Z,97.61
2018-09-22T16:03:21.418Z,95.98
2018-09-22T16:04:21.437Z,96.94
2018-09-22T16:05:21.456Z,98.09
2018-09-22T16:06:21.476Z,96.08
2018-09-22T16:07:21.497Z,99.99
2018-09-22T16:08:21.512Z,98.57
2018-09-22T16:09:21.543Z,97.99
2018-09-22T16:10:21.545Z,97.99
2018-09-22T16:11:21.566Z,99.99
2018-09-22T16:12:21.580Z,99.99
2018-09-22T16:13:21.596Z,95.98
2018-09-22T16:14:21.620Z,95.98
2018-09-22T16:15:21.699Z,95.79
2018-09-22T16:16:21.673Z,99.90
2018-09-22T16:17:21.670Z,99.99
2018-09-22T16:18:21.689Z,98.66
2018-09-22T16:19:21.707Z,94.26
2018-09-22T16:20:21.732Z,96.37
2018-09-22T16:21:21.742Z,95.61
2018-09-22T16:22:21.763Z,95.03
2018-09-22T16:23:21.775Z,94.17
2018-09-22T16:24:21.792Z,93.69
2018-09-22T16:25:21.814Z,94.74
2018-09-22T16:26:21.838Z,92.83
2018-09-22T16:27:21.871Z,92.45
2018-09-22T16:28:21.869Z,91.78
2018-09-22T16:29:21.884Z,89.67
2018-09-22T16:30:21.904Z,90.25
2018-09-22T16:31:21.921Z,92.07
2018-09-22T16:32:21.950Z,90.44
2018-09-22T16:33:21.955Z,88.15
2018-09-22T16:34:21.976Z,89.87
2018-09-22T16:35:22.001Z,89.01
2018-09-22T16:36:22.014Z,87.00
2018-09-22T16:37:22.032Z,85.18
2018-09-22T16:38:22.045Z,86.61
2018-09-22T16:39:22.061Z,85.18
2018-09-22T16:40:22.103Z,85.18
2018-09-22T16:41:22.151Z,84.70
2018-09-22T16:42:22.116Z,83.17
2018-09-22T16:43:22.136Z,82.41
2018-09-22T16:44:22.150Z,82.31
2018-09-22T16:45:22.172Z,79.73
2018-09-22T16:46:22.181Z,81.84
2018-09-22T16:47:22.201Z,82.41
2018-09-22T16:48:22.219Z,79.73
2018-09-22T16:49:22.243Z,77.44
2018-09-22T16:50:22.259Z,76.64
2018-09-22T16:51:22.274Z,74.95
2018-09-22T16:52:22.291Z,73.71
2018-09-22T16:53:22.308Z,73.04
2018-09-22T16:54:22.337Z,73.43
2018-09-22T16:55:22.342Z,72.53
2018-09-22T16:56:22.361Z,70.33
2018-09-22T16:57:22.382Z,68.23
2018-09-22T16:58:22.451Z,67.55
2018-09-22T16:59:22.413Z,69.09
2018-09-22T17:00:22.432Z,68.93
2018-09-22T17:01:22.449Z,67.75
2018-09-22T17:02:22.465Z,65.74
2018-09-22T17:03:22.488Z,65.07
2018-09-22T17:04:22.500Z,64.78
2018-09-22T17:05:22.516Z,63.64
2018-09-22T17:06:22.535Z,63.35
2018-09-22T17:07:22.556Z,63.93
2018-09-22T17:08:22.570Z,64.02
2018-09-22T17:09:22.593Z,64.98
2018-09-22T17:10:22.609Z,65.26
2018-09-22T17:11:22.625Z,65.84
2018-09-22T17:12:22.651Z,65.26